createdAt,value
2023-04-03T00:01:22.391Z,87.67
2023-04-03T00:03:50.142Z,88.14
2023-04-03T00:06:20.408Z,88.86
2023-04-03T00:08:48.170Z,88.16
2023-04-03T00:11:18.063Z,88.89
2023-04-03T00:13:46.080Z,90.79
2023-04-03T00:16:14.982Z,90.67
2023-04-03T00:18:43.408Z,91.33
2023-04-03T00:21:14.038Z,90.48
2023-04-03T00:23:41.696Z,90.19
2023-04-03T00:26:09.754Z,90.59
2023-04-03T00:28:38.798Z,89.67
2023-04-03T00:33:34.141Z,88.45
2023-04-03T00:36:07.519Z,89.01
2023-04-03T00:38:36.226Z,89.02
2023-04-03T00:41:04.752Z,89.54
2023-04-03T00:43:32.633Z,90.75
2023-04-03T00:46:02.573Z,90.72
2023-04-03T00:48:37.516Z,91.41
2023-04-03T00:51:07.935Z,90.63
2023-04-03T00:53:39.323Z,91.42
2023-04-03T00:56:11.586Z,91.92
2023-04-03T00:58:45.636Z,91.63
2023-04-03T01:01:20.886Z,92.49
2023-04-03T01:03:48.646Z,91.82
2023-04-03T01:06:20.727Z,90.44
2023-04-03T01:08:51.169Z,90.39
2023-04-03T01:11:18.919Z,90.04
2023-04-03T01:13:46.589Z,89.89
2023-04-03T01:16:15.683Z,89.87
2023-04-03T01:18:44.852Z,88.73
2023-04-03T01:21:44.709Z,88.14
2023-04-03T01:24:43.323Z,88.79
2023-04-03T01:27:13.041Z,88.08
2023-04-03T01:29:41.901Z,88.80
2023-04-03T01:32:10.906Z,88.06
2023-04-03T01:34:38.622Z,88.50
2023-04-03T01:37:06.493Z,88.60
2023-04-03T01:39:34.241Z,88.63
2023-04-03T01:42:02.133Z,87.50
2023-04-03T01:44:29.833Z,88.09
2023-04-03T01:46:57.475Z,88.78
2023-04-03T01:49:26.664Z,89.89
2023-04-03T01:51:54.334Z,90.66
2023-04-03T01:54:22.359Z,91.07
2023-04-03T01:56:50.170Z,91.83
2023-04-03T01:59:19.096Z,91.79
2023-04-03T02:01:46.927Z,92.18
2023-04-03T02:04:15.404Z,91.32
2023-04-03T02:06:44.454Z,92.09
2023-04-03T02:09:12.164Z,92.90
2023-04-03T02:11:39.793Z,92.31
2023-04-03T02:14:08.048Z,93.70
2023-04-03T02:16:35.682Z,94.18
2023-04-03T02:19:03.416Z,95.10
2023-04-03T02:21:33.528Z,94.47
2023-04-03T02:24:02.591Z,95.61
2023-04-03T02:26:30.310Z,96.66
2023-04-03T02:28:58.022Z,96.89
2023-04-03T02:31:25.818Z,97.68
2023-04-03T02:33:53.456Z,97.91
2023-04-03T02:36:21.458Z,98.12
2023-04-03T02:38:49.270Z,98.61
2023-04-03T02:41:18.308Z,99.46
2023-04-03T02:43:45.988Z,100.00
2023-04-03T02:46:15.976Z,100.00
2023-04-03T02:48:43.688Z,100.00
2023-04-03T02:51:11.398Z,100.00
2023-04-03T02:53:39.118Z,100.00
2023-04-03T02:56:07.251Z,100.00
2023-04-03T02:58:36.550Z,100.00
2023-04-03T03:01:04.321Z,100.00
2023-04-03T03:03:31.993Z,100.00
2023-04-03T03:06:04.466Z,100.00
2023-04-03T03:08:32.230Z,100.00
2023-04-03T03:11:00.022Z,100.00
2023-04-03T03:13:28.475Z,100.00
2023-04-03T03:15:57.651Z,100.00
2023-04-03T03:18:25.553Z,100.00
2023-04-03T03:20:53.668Z,100.00
2023-04-03T03:23:21.998Z,100.00
2023-04-03T03:25:49.668Z,100.00
2023-04-03T03:28:17.347Z,100.00
2023-04-03T03:30:44.954Z,100.00
2023-04-03T03:33:13.958Z,100.00
2023-04-03T03:35:42.806Z,100.00
2023-04-03T03:38:10.650Z,100.00
2023-04-03T03:40:38.294Z,100.00
2023-04-03T03:43:06.002Z,100.00
2023-04-03T03:45:33.755Z,100.00
2023-04-03T03:48:01.531Z,100.00
2023-04-03T03:50:30.578Z,100.00
2023-04-03T03:52:58.332Z,100.00
2023-04-03T03:55:26.276Z,100.00
2023-04-03T03:57:54.017Z,100.00
2023-04-03T04:00:22.233Z,100.00
2023-04-03T04:02:50.384Z,100.00
2023-04-03T04:05:18.612Z,100.00
2023-04-03T04:07:47.819Z,100.00
2023-04-03T04:10:15.786Z,100.00
2023-04-03T04:12:43.470Z,100.00
2023-04-03T04:15:12.058Z,100.00
2023-04-03T04:17:39.747Z,100.00
2023-04-03T04:20:08.336Z,100.00
2023-04-03T04:22:36.242Z,100.00
2023-04-03T04:25:06.272Z,100.00
2023-04-03T04:27:34.098Z,100.00
2023-04-03T04:30:02.002Z,100.00
2023-04-03T04:32:29.847Z,100.00
2023-04-03T04:34:57.583Z,100.00
2023-04-03T04:37:25.425Z,100.00
2023-04-03T04:39:53.098Z,100.00
2023-04-03T04:42:22.109Z,100.00
2023-04-03T04:44:49.838Z,100.00
2023-04-03T04:47:17.706Z,100.00
2023-04-03T04:49:45.541Z,100.00
2023-04-03T04:52:13.407Z,100.00
2023-04-03T04:54:41.139Z,100.00
2023-04-03T04:57:08.911Z,100.00
2023-04-03T04:59:37.920Z,100.00
2023-04-03T05:02:05.643Z,100.00
2023-04-03T05:04:34.322Z,100.00
2023-04-03T05:07:02.305Z,100.00
2023-04-03T05:09:30.153Z,100.00
2023-04-03T05:11:58.199Z,100.00
2023-04-03T05:14:26.128Z,100.00
2023-04-03T05:16:55.255Z,100.00
2023-04-03T05:19:23.505Z,100.00
2023-04-03T05:21:51.208Z,100.00
2023-04-03T05:24:19.153Z,100.00
2023-04-03T05:26:46.853Z,100.00
2023-04-03T05:29:14.508Z,100.00
2023-04-03T05:31:42.266Z,100.00
2023-04-03T05:34:11.346Z,100.00
2023-04-03T05:36:39.034Z,100.00
2023-04-03T05:39:07.165Z,100.00
2023-04-03T05:41:35.037Z,100.00
2023-04-03T05:44:02.932Z,100.00
2023-04-03T05:46:30.909Z,100.00
2023-04-03T05:48:58.746Z,100.00
2023-04-03T05:51:32.844Z,100.00
2023-04-03T05:54:07.986Z,100.00
2023-04-03T05:56:35.732Z,100.00
2023-04-03T05:59:03.527Z,100.00
2023-04-03T06:01:31.207Z,100.00
2023-04-03T06:03:59.916Z,100.00
2023-04-03T06:06:45.303Z,100.00
2023-04-03T06:09:13.060Z,100.00
2023-04-03T06:11:40.792Z,100.00
2023-04-03T06:14:09.034Z,100.00
2023-04-03T06:16:38.929Z,100.00
2023-04-03T06:19:07.798Z,100.00
2023-04-03T06:21:37.170Z,100.00
2023-04-03T06:24:07.201Z,100.00
2023-04-03T06:26:36.133Z,100.00
2023-04-03T06:29:06.399Z,100.00
2023-04-03T06:31:34.361Z,100.00
2023-04-03T06:34:02.429Z,100.00
2023-04-03T06:36:30.855Z,100.00
2023-04-03T06:39:00.107Z,100.00
2023-04-03T06:41:29.122Z,100.00
2023-04-03T06:43:57.480Z,100.00
2023-04-03T06:46:27.278Z,100.00
2023-04-03T06:48:56.349Z,100.00
2023-04-03T06:51:27.071Z,100.00
2023-04-03T06:53:58.742Z,100.00
2023-04-03T06:56:29.727Z,100.00
2023-04-03T06:58:58.688Z,100.00
2023-04-03T07:01:28.840Z,100.00
2023-04-03T07:03:57.783Z,100.00
2023-04-03T07:06:27.987Z,100.00
2023-04-03T07:08:56.455Z,100.00
2023-04-03T07:11:24.585Z,100.00
2023-04-03T07:13:57.604Z,100.00
2023-04-03T07:16:25.380Z,100.00
2023-04-03T07:18:53.632Z,100.00
2023-04-03T07:21:21.670Z,100.00
2023-04-03T07:26:23.275Z,100.00
2023-04-03T07:28:51.607Z,100.00
2023-04-03T07:31:21.579Z,100.00
2023-04-03T07:33:49.307Z,100.00
2023-04-03T07:36:19.536Z,100.00
2023-04-03T07:38:47.368Z,100.00
2023-04-03T07:41:18.537Z,100.00
2023-04-03T07:43:47.514Z,99.15
2023-04-03T07:46:15.387Z,96.80
2023-04-03T07:48:44.671Z,95.81
2023-04-03T07:51:12.723Z,95.73
2023-04-03T07:53:40.492Z,95.17
2023-04-03T07:56:09.156Z,93.73
2023-04-03T07:58:37.260Z,91.37
2023-04-03T08:01:05.786Z,88.66
2023-04-03T08:03:33.609Z,88.80
2023-04-03T08:06:09.191Z,88.47
2023-04-03T08:08:39.491Z,86.32
2023-04-03T08:11:08.991Z,88.70
2023-04-03T08:13:36.879Z,90.24
2023-04-03T08:16:12.629Z,88.43
2023-04-03T08:18:41.213Z,85.34
2023-04-03T08:21:12.280Z,82.16
2023-04-03T08:23:40.011Z,78.61
2023-04-03T08:26:09.798Z,75.67
2023-04-03T08:28:37.560Z,74.75
2023-04-03T08:31:08.187Z,73.43
2023-04-03T08:33:38.094Z,62.89
2023-04-03T08:36:07.420Z,58.27
2023-04-03T08:38:37.826Z,49.48
2023-04-03T08:41:13.848Z,48.54
2023-04-03T08:43:55.491Z,50.34
2023-04-03T08:46:27.956Z,48.70
2023-04-03T08:48:56.724Z,44.63
2023-04-03T08:51:26.487Z,45.37
2023-04-03T08:54:00.866Z,43.06
2023-04-03T08:56:29.409Z,40.88
2023-04-03T08:58:59.360Z,39.80
2023-04-03T09:01:31.717Z,42.40
2023-04-03T09:03:59.555Z,43.44
2023-04-03T09:06:33.597Z,45.41
2023-04-03T09:09:14.095Z,47.64
2023-04-03T09:11:53.638Z,49.02
2023-04-03T09:14:28.099Z,47.46
2023-04-03T09:16:58.481Z,49.15
2023-04-03T09:19:37.199Z,50.89
2023-04-03T09:22:15.865Z,53.06
2023-04-03T09:24:47.440Z,54.27
2023-04-03T09:27:15.403Z,54.98
2023-04-03T09:29:47.023Z,55.04
2023-04-03T09:32:23.090Z,55.63
2023-04-03T09:34:52.946Z,54.94
2023-04-03T09:37:39.776Z,55.35
2023-04-03T09:40:31.038Z,55.36
2023-04-03T09:43:01.625Z,55.51
2023-04-03T09:45:32.726Z,54.47
2023-04-03T09:48:15.385Z,53.02
2023-04-03T09:50:59.523Z,52.47
2023-04-03T09:53:36.358Z,49.97
2023-04-03T09:56:20.846Z,50.04
2023-04-03T09:58:51.353Z,49.44
2023-04-03T10:01:30.834Z,46.43
2023-04-03T10:04:11.212Z,41.82
2023-04-03T10:06:44.268Z,43.42
2023-04-03T10:09:22.152Z,45.63
2023-04-03T10:12:03.125Z,46.69
2023-04-03T10:14:32.123Z,47.88
2023-04-03T10:17:08.125Z,48.17
2023-04-03T10:19:41.753Z,49.20
2023-04-03T10:22:19.724Z,49.52
2023-04-03T10:24:56.067Z,50.15
2023-04-03T10:27:39.150Z,49.77
2023-04-03T10:30:22.873Z,47.45
2023-04-03T10:33:00.550Z,47.99
2023-04-03T10:35:41.623Z,47.59
2023-04-03T10:38:18.031Z,48.07
2023-04-03T10:40:54.018Z,48.26
2023-04-03T10:43:35.333Z,48.78
2023-04-03T10:46:09.995Z,50.61
2023-04-03T10:49:00.509Z,49.63
2023-04-03T10:51:34.601Z,46.49
2023-04-03T10:54:10.972Z,47.18
2023-04-03T10:56:42.938Z,47.16
2023-04-03T10:59:23.044Z,45.97
2023-04-03T11:01:55.801Z,43.95
2023-04-03T11:04:26.445Z,45.85
2023-04-03T11:07:00.558Z,46.72
2023-04-03T11:09:35.677Z,46.50
2023-04-03T11:12:08.336Z,46.00
2023-04-03T11:14:40.064Z,45.43
2023-04-03T11:17:17.586Z,44.50
2023-04-03T11:19:50.317Z,40.89
2023-04-03T11:22:25.052Z,38.21
2023-04-03T11:25:00.731Z,39.56
2023-04-03T11:27:35.960Z,40.10
2023-04-03T11:30:11.317Z,40.93
2023-04-03T11:33:13.514Z,42.05
2023-04-03T11:35:46.068Z,42.16
2023-04-03T11:38:23.018Z,41.35
2023-04-03T11:40:52.183Z,41.79
2023-04-03T11:43:26.942Z,38.70
2023-04-03T11:46:00.270Z,35.16
2023-04-03T11:48:50.114Z,36.90
2023-04-03T12:14:17.364Z,37.19
2023-04-03T12:16:48.352Z,35.98
2023-04-03T12:22:17.809Z,36.61
2023-04-03T12:24:49.442Z,38.90
2023-04-03T12:27:35.262Z,39.64
2023-04-03T12:30:14.219Z,39.07
2023-04-03T12:33:13.068Z,37.71
2023-04-03T12:35:49.900Z,35.69
2023-04-03T12:38:40.471Z,35.36
2023-04-03T12:41:22.403Z,34.25
2023-04-03T12:44:03.640Z,35.53
2023-04-03T12:46:40.899Z,35.59
2023-04-03T12:49:24.836Z,39.27
2023-04-03T12:51:52.761Z,39.17
2023-04-03T12:54:24.417Z,40.05
2023-04-03T12:56:52.559Z,40.22
2023-04-03T12:59:22.592Z,39.74
2023-04-03T13:01:59.794Z,40.36
2023-04-03T13:04:29.446Z,39.38
2023-04-03T13:06:57.143Z,39.84
2023-04-03T13:09:26.574Z,38.03
2023-04-03T13:12:00.333Z,37.57
2023-04-03T13:14:31.357Z,38.34
2023-04-03T13:17:05.266Z,37.92
2023-04-03T13:19:33.190Z,40.26
2023-04-03T13:22:04.397Z,40.74
2023-04-03T13:24:36.234Z,41.64
2023-04-03T13:27:05.337Z,41.19
2023-04-03T13:29:37.205Z,42.20
2023-04-03T13:32:07.842Z,41.00
2023-04-03T13:34:40.121Z,41.01
2023-04-03T13:37:09.026Z,40.47
2023-04-03T13:39:38.921Z,39.67
2023-04-03T13:42:18.650Z,40.28
2023-04-03T13:44:48.620Z,40.74
2023-04-03T13:47:20.966Z,41.58
2023-04-03T13:50:02.556Z,42.71
2023-04-03T13:52:33.552Z,42.65
2023-04-03T13:55:05.809Z,42.73
2023-04-03T13:57:35.898Z,43.16
2023-04-03T14:00:22.193Z,41.99
2023-04-03T14:02:51.252Z,41.03
2023-04-03T14:05:22.151Z,41.67
2023-04-03T14:07:49.875Z,42.08
2023-04-03T14:10:17.627Z,42.16
2023-04-03T14:12:45.630Z,41.37
2023-04-03T14:15:18.606Z,41.68
2023-04-03T14:17:46.549Z,41.96
2023-04-03T14:20:19.258Z,42.70
2023-04-03T14:22:47.290Z,41.90
2023-04-03T14:25:15.020Z,41.85
2023-04-03T14:27:44.776Z,41.97
2023-04-03T14:30:17.681Z,42.19
2023-04-03T14:32:45.919Z,42.59
2023-04-03T14:35:13.716Z,42.24
2023-04-03T14:37:43.149Z,42.85
2023-04-03T14:40:14.643Z,42.59
2023-04-03T14:42:42.717Z,42.43
2023-04-03T14:45:12.870Z,42.91
2023-04-03T14:47:46.372Z,42.51
2023-04-03T14:50:18.061Z,42.35
2023-04-03T14:52:47.391Z,42.67
2023-04-03T14:55:17.634Z,43.50
2023-04-03T14:57:45.641Z,43.47
2023-04-03T15:00:16.673Z,42.65
2023-04-03T15:02:45.252Z,42.43
2023-04-03T15:05:14.899Z,42.66
2023-04-03T15:07:45.065Z,41.91
2023-04-03T15:10:22.786Z,42.05
2023-04-03T15:12:50.762Z,43.39
2023-04-03T15:15:21.327Z,43.46
2023-04-03T15:17:59.124Z,43.00
2023-04-03T15:20:31.449Z,44.14
2023-04-03T15:23:01.653Z,44.97
2023-04-03T15:25:31.585Z,44.80
2023-04-03T15:27:59.809Z,44.82
2023-04-03T15:30:27.519Z,44.93
2023-04-03T15:32:55.711Z,44.56
2023-04-03T15:35:24.136Z,44.48
2023-04-03T15:37:52.319Z,44.34
2023-04-03T15:40:20.106Z,44.59
2023-04-03T15:42:49.644Z,44.02
2023-04-03T15:45:18.002Z,44.48
2023-04-03T15:47:45.890Z,44.35
2023-04-03T15:50:13.576Z,43.97
2023-04-03T15:52:42.323Z,44.63
2023-04-03T15:55:12.799Z,44.58
2023-04-03T16:00:16.043Z,44.62
2023-04-03T16:02:44.868Z,45.26
2023-04-03T16:05:14.551Z,45.07
2023-04-03T16:07:42.424Z,45.13
2023-04-03T16:10:12.470Z,45.73
2023-04-03T16:12:40.275Z,45.68
2023-04-03T16:15:08.913Z,45.30
2023-04-03T16:17:39.814Z,45.13
2023-04-03T16:20:09.571Z,45.82
2023-04-03T16:22:37.773Z,45.55
2023-04-03T16:25:06.412Z,45.61
2023-04-03T16:27:34.189Z,45.53
2023-04-03T16:30:01.884Z,45.61
2023-04-03T16:32:32.473Z,45.46
2023-04-03T16:37:34.689Z,45.28
2023-04-03T16:40:02.882Z,45.66
2023-04-03T16:42:30.677Z,46.08
2023-04-03T16:44:59.741Z,46.07
2023-04-03T16:47:27.502Z,46.54
2023-04-03T16:49:55.205Z,46.62
2023-04-03T16:52:24.311Z,46.44
2023-04-03T16:54:56.139Z,46.61
2023-04-03T16:57:25.616Z,47.04
2023-04-03T16:59:54.229Z,46.55
2023-04-03T17:02:22.555Z,46.48
2023-04-03T17:04:51.918Z,46.63
2023-04-03T17:07:19.890Z,46.99
2023-04-03T17:09:49.809Z,47.31
2023-04-03T17:12:18.029Z,47.31
2023-04-03T17:14:47.667Z,47.67
2023-04-03T17:17:15.875Z,47.40
2023-04-03T17:19:45.007Z,47.71
2023-04-03T17:22:13.134Z,47.84
2023-04-03T17:24:41.053Z,48.31
2023-04-03T17:27:10.116Z,48.74
2023-04-03T17:29:37.831Z,48.50
2023-04-03T17:32:05.850Z,48.69
2023-04-03T17:34:33.929Z,48.39
2023-04-03T17:37:01.637Z,48.70
2023-04-03T17:39:29.370Z,48.75
2023-04-03T17:41:57.084Z,49.09
2023-04-03T17:44:26.244Z,49.34
2023-04-03T17:46:53.970Z,49.70
2023-04-03T17:49:22.461Z,49.88
2023-04-03T17:51:50.392Z,50.03
2023-04-03T17:54:18.099Z,50.23
2023-04-03T17:56:48.155Z,49.97
2023-04-03T17:59:16.730Z,49.92
2023-04-03T18:01:47.771Z,49.72
2023-04-03T18:04:16.215Z,50.41
2023-04-03T18:06:47.990Z,50.46
2023-04-03T18:09:18.559Z,50.58
2023-04-03T18:11:48.281Z,50.70
2023-04-03T18:14:20.370Z,51.08
2023-04-03T18:16:49.543Z,50.71
2023-04-03T18:19:23.281Z,50.91
2023-04-03T18:21:59.199Z,51.09
2023-04-03T18:24:28.122Z,51.30
2023-04-03T18:27:00.705Z,51.04
2023-04-03T18:29:31.625Z,51.13
2023-04-03T18:32:06.240Z,51.17
2023-04-03T18:34:34.755Z,51.30
2023-04-03T18:37:03.193Z,51.23
2023-04-03T18:39:33.312Z,50.98
2023-04-03T18:42:07.842Z,50.83
2023-04-03T18:44:39.691Z,50.90
2023-04-03T18:47:09.649Z,51.02
2023-04-03T18:49:40.778Z,50.95
2023-04-03T18:52:08.974Z,51.04
2023-04-03T18:54:38.353Z,51.24
2023-04-03T18:57:06.743Z,50.84
2023-04-03T18:59:34.626Z,51.09
2023-04-03T19:02:02.442Z,51.25
2023-04-03T19:04:32.165Z,51.30
2023-04-03T19:07:03.766Z,51.14
2023-04-03T19:09:31.830Z,51.37
2023-04-03T19:12:03.886Z,51.24
2023-04-03T19:14:33.426Z,51.15
2023-04-03T19:17:04.185Z,51.38
2023-04-03T19:19:33.623Z,51.00
2023-04-03T19:22:01.871Z,51.23
2023-04-03T19:24:31.207Z,51.37
2023-04-03T19:26:59.538Z,51.63
2023-04-03T19:29:28.891Z,51.67
2023-04-03T19:31:56.819Z,52.03
2023-04-03T19:34:24.636Z,52.01
2023-04-03T19:36:55.451Z,51.95
2023-04-03T19:39:23.901Z,52.08
2023-04-03T19:41:51.704Z,52.16
2023-04-03T19:44:19.651Z,51.99
2023-04-03T19:46:51.829Z,52.51
2023-04-03T19:49:22.967Z,52.40
2023-04-03T19:51:51.051Z,52.86
2023-04-03T19:54:20.942Z,53.17
2023-04-03T19:56:53.746Z,52.85
2023-04-03T19:59:25.147Z,53.34
2023-04-03T20:01:54.130Z,53.60
2023-04-03T20:04:23.522Z,53.61
2023-04-03T20:06:53.923Z,53.40
2023-04-03T20:09:23.308Z,53.54
2023-04-03T20:11:53.816Z,53.65
2023-04-03T20:14:21.879Z,54.09
2023-04-03T20:16:51.470Z,54.21
2023-04-03T20:19:27.001Z,53.95
2023-04-03T20:22:00.586Z,54.53
2023-04-03T20:24:33.252Z,55.13
2023-04-03T20:27:01.804Z,54.89
2023-04-03T20:29:29.889Z,54.78
2023-04-03T20:31:58.855Z,54.91
2023-04-03T20:34:28.766Z,54.67
2023-04-03T20:36:57.011Z,54.95
2023-04-03T20:39:26.720Z,54.75
2023-04-03T20:41:56.672Z,54.87
2023-04-03T20:44:25.498Z,55.50
2023-04-03T20:46:54.827Z,55.49
2023-04-03T20:49:25.029Z,55.79
2023-04-03T20:51:55.728Z,55.83
2023-04-03T20:54:25.131Z,55.58
2023-04-03T20:56:53.454Z,55.95
2023-04-03T20:59:24.156Z,56.38
2023-04-03T21:01:52.644Z,56.60
2023-04-03T21:04:31.143Z,56.75
2023-04-03T21:07:39.014Z,56.69
2023-04-03T21:10:46.509Z,57.87
2023-04-03T21:13:52.182Z,58.33
2023-04-03T21:16:22.014Z,58.48
2023-04-03T21:19:00.805Z,59.10
2023-04-03T21:21:29.496Z,59.07
2023-04-03T21:23:57.746Z,59.32
2023-04-03T21:26:28.363Z,59.11
2023-04-03T21:28:56.966Z,59.25
2023-04-03T21:31:25.980Z,59.04
2023-04-03T21:33:57.444Z,59.29
2023-04-03T21:36:28.045Z,58.84
2023-04-03T21:38:59.472Z,58.73
2023-04-03T21:41:27.848Z,58.70
2023-04-03T21:43:57.212Z,59.40
2023-04-03T21:46:26.789Z,59.93
2023-04-03T21:48:57.920Z,59.96
2023-04-03T21:51:28.842Z,59.45
2023-04-03T21:53:58.180Z,60.00
2023-04-03T21:56:26.976Z,59.25
2023-04-03T21:58:56.060Z,59.74
2023-04-03T22:01:24.226Z,60.22
2023-04-03T22:03:51.996Z,60.14
2023-04-03T22:06:21.352Z,60.51
2023-04-03T22:08:49.364Z,61.11
2023-04-03T22:11:17.557Z,60.81
2023-04-03T22:13:47.162Z,61.60
2023-04-03T22:16:14.981Z,61.52
2023-04-03T22:18:43.373Z,61.04
2023-04-03T22:21:11.115Z,60.25
2023-04-03T22:23:41.346Z,61.05
2023-04-03T22:26:10.643Z,60.22
2023-04-03T22:28:40.657Z,60.89
2023-04-03T22:31:09.400Z,61.02
2023-04-03T22:33:39.418Z,61.43
2023-04-03T22:36:09.057Z,61.44
2023-04-03T22:38:37.551Z,61.76
2023-04-03T22:41:08.137Z,62.00
2023-04-03T22:43:38.047Z,61.75
2023-04-03T22:46:09.264Z,61.75
2023-04-03T22:48:38.628Z,62.51
2023-04-03T22:51:08.041Z,61.68
2023-04-03T22:53:36.200Z,62.14
2023-04-03T22:56:08.689Z,61.66
2023-04-03T22:58:37.220Z,62.75
2023-04-03T23:01:06.640Z,62.55
2023-04-03T23:03:35.145Z,62.91
2023-04-03T23:06:03.566Z,63.02
2023-04-03T23:08:32.486Z,62.59
2023-04-03T23:11:00.555Z,63.72
2023-04-03T23:13:29.865Z,64.37
2023-04-03T23:15:58.412Z,64.42
2023-04-03T23:18:26.723Z,63.91
2023-04-03T23:20:55.038Z,63.69
2023-04-03T23:23:23.876Z,63.08
2023-04-03T23:25:54.638Z,62.13
2023-04-03T23:28:22.807Z,61.51
2023-04-03T23:30:57.402Z,60.87
2023-04-03T23:33:25.268Z,60.43
2023-04-03T23:35:52.977Z,60.06
2023-04-03T23:38:20.908Z,59.15
2023-04-03T23:40:48.631Z,59.20
2023-04-03T23:43:16.836Z,60.10
2023-04-03T23:45:45.729Z,60.01
2023-04-03T23:48:14.809Z,59.29
2023-04-03T23:50:42.924Z,58.82
2023-04-03T23:53:12.941Z,58.74
2023-04-03T23:55:40.854Z,58.74
2023-04-03T23:58:08.844Z,58.07
